Bellingham International Airport
KBLI : now visible

Airfield :











YOU CAN JOIN US ON...

 
LOGIN :

Register | Disclaimer

   EN    FR    IT 

 









Legend :    VFR   Marginal VFR   IFR   Intensive IFR   Very Intensive IFR
Visi :
Ceiling :
>= 8 km
>= 3000ft
5 to 8 km
1000 to 3000 ft
1500m to 5 km
500 to 1000 ft
800 to 1500m
200 to 500 ft
< 800m
< 200 ft
Symbols :   Thunderstorms  Fog  Heavy snow  Heavy precipitations  Wind > 20 kt






- Airport Elevation : 170 ft
- IATA code : BLI


KBLI - Bellingham International

CURRENT METAR :
  • 080653Z AUTO 00000KT 5SM HZ BKN028 OVC033 09/06 A2985 RMK AO2 SLP116 T00890061

EXPIRED METARs :
  • 080641Z AUTO 00000KT 7SM OVC029 09/06 A2985 RMK AO2 T00890061
  • 080632Z AUTO 00000KT 4SM HZ OVC030 08/06 A2985 RMK AO2 T00830056
  • 080553Z 00000KT 6SM HZ SCT002 BKN020 OVC030 09/06 A2984 RMK AO2 SLP111 T00890061 10100 20083 51019
  • 080453Z 00000KT 8SM FEW002 SCT024 BKN036 09/06 A2982 RMK AO2 SLP106 T00890061

TAF KBLI
Valid from the 08 at 06:00 until the 09 at 06:00 UTC


080529Z 0806/0906 00000KT P6SM SCT002 SCT025 BKN035
TEMPO 0806/0810 2SM BR BKN002 OVC025
FM081000 00000KT 1SM BR OVC002
FM081800 VRB03KT 6SM BR BKN004 OVC015
FM082000 VRB03KT P6SM BKN015 BKN030
FM082200 VRB03KT P6SM SCT030 BKN050



MET'MAP, your aeronautical weather chart ! - Copyright ORBIFLY December 2007 - Disclaimer

ORBIFLY MET'MAP TEAM :

Programming & Development : Alexandra Zaïnal
Concept & original design : Baudouin d'Aumeries
Assistance for programming : Marc-Olivier Méhu
Technical & hardware support : Manuel Goepfert

Contact : metmap@orbifly.com




SOURCES & CREDITS :

   NOAA       Earth
Advisory